Time;durP1;ratioP1;P1;durP2;ratioP2;P2;SDS_P1;SDS_P2;PMS_P1;PMS_P2;Temp;Humidity;BMP_temperature;BMP_pressure;BME280_temperature;BME280_humidity;BME280_pressure;Samples;Min_cycle;Max_cycle;Signal;HPM_P1;HPM_P2
2022/03/05 00:01:44;;;;;;;6.20;3.30;;;9.20;99.90;;;;;;5068431;28;20208;-66
2022/03/05 00:04:10;;;;;;;5.07;3.17;;;9.20;99.90;;;;;;5067684;28;20198;-66
2022/03/05 00:06:37;;;;;;;5.07;3.60;;;9.10;99.90;;;;;;5064944;28;20205;-66
2022/03/05 00:09:03;;;;;;;4.90;3.00;;;9.10;99.90;;;;;;5062581;28;20205;-67
2022/03/05 00:11:29;;;;;;;9.53;3.47;;;9.10;99.90;;;;;;5067568;28;20274;-67
2022/03/05 00:13:56;;;;;;;7.63;3.40;;;9.00;99.90;;;;;;5066282;28;20186;-67
2022/03/05 00:16:22;;;;;;;3.47;3.07;;;9.00;99.90;;;;;;5067192;28;20661;-67
2022/03/05 00:18:49;;;;;;;6.90;3.30;;;9.00;99.90;;;;;;5065340;28;20190;-65
2022/03/05 00:21:17;;;;;;;5.27;3.47;;;9.00;99.90;;;;;;5074896;28;20218;-66
2022/03/05 00:23:43;;;;;;;3.90;3.47;;;9.00;99.90;;;;;;5049360;28;20686;-65
2022/03/05 00:26:12;;;;;;;4.67;2.97;;;8.90;99.90;;;;;;5049437;28;20620;-67
2022/03/05 00:28:38;;;;;;;5.67;3.23;;;8.90;99.90;;;;;;5068246;28;20272;-66
2022/03/05 00:31:04;;;;;;;7.27;3.20;;;8.90;99.90;;;;;;5068520;28;20598;-66
2022/03/05 00:33:31;;;;;;;4.40;3.23;;;8.90;99.90;;;;;;5069773;28;20225;-65
2022/03/05 00:35:57;;;;;;;5.23;3.23;;;8.90;99.90;;;;;;5070768;28;20544;-66
2022/03/05 00:38:23;;;;;;;8.90;3.93;;;8.90;99.90;;;;;;5063212;28;20674;-66
2022/03/05 00:40:49;;;;;;;5.97;3.27;;;8.90;99.90;;;;;;5062424;28;20179;-66
2022/03/05 00:43:16;;;;;;;6.03;3.53;;;9.00;99.90;;;;;;5071318;28;20876;-66
2022/03/05 00:45:42;;;;;;;11.13;3.20;;;9.00;99.90;;;;;;5069755;28;20191;-67
2022/03/05 00:48:09;;;;;;;9.40;3.33;;;9.00;99.90;;;;;;5070955;28;20257;-66
2022/03/05 00:50:35;;;;;;;4.97;3.70;;;9.00;99.90;;;;;;5071199;28;20230;-66
2022/03/05 00:53:01;;;;;;;4.40;3.30;;;9.00;99.90;;;;;;5069078;28;20590;-66
2022/03/05 00:55:27;;;;;;;4.80;3.07;;;9.00;99.90;;;;;;5069187;28;20186;-65
2022/03/05 00:57:54;;;;;;;6.30;3.23;;;9.00;99.90;;;;;;5071098;28;20205;-66
2022/03/05 01:00:20;;;;;;;3.40;3.10;;;9.10;99.90;;;;;;5071070;28;20195;-66
2022/03/05 01:02:46;;;;;;;8.53;3.30;;;9.10;99.90;;;;;;5070060;28;20698;-66
2022/03/05 01:05:13;;;;;;;4.67;3.10;;;9.00;99.90;;;;;;5051841;28;20622;-67
2022/03/05 01:07:39;;;;;;;6.77;3.03;;;9.00;99.90;;;;;;5068687;28;20672;-66
2022/03/05 01:10:06;;;;;;;6.47;3.20;;;9.00;99.90;;;;;;5065691;28;20634;-67
2022/03/05 01:12:34;;;;;;;4.33;3.50;;;9.00;99.90;;;;;;5062977;28;20190;-65
2022/03/05 01:15:01;;;;;;;6.77;3.40;;;9.00;99.90;;;;;;5070901;28;20222;-65
2022/03/05 01:17:28;;;;;;;7.73;2.80;;;9.00;99.90;;;;;;5068942;28;20191;-65
2022/03/05 01:19:54;;;;;;;7.90;3.10;;;9.10;99.90;;;;;;5069191;28;20631;-66
2022/03/05 01:22:20;;;;;;;4.83;3.13;;;9.10;99.90;;;;;;5071096;28;20191;-67
2022/03/05 01:24:46;;;;;;;5.93;3.23;;;9.10;99.90;;;;;;5069106;28;20214;-65
2022/03/05 01:27:13;;;;;;;9.10;3.23;;;9.10;99.90;;;;;;5070247;28;20218;-65
2022/03/05 01:29:39;;;;;;;6.27;3.30;;;9.10;99.90;;;;;;5069588;28;20187;-66
2022/03/05 01:32:06;;;;;;;4.70;3.00;;;9.00;99.90;;;;;;5066037;28;20270;-66
2022/03/05 01:34:32;;;;;;;7.50;3.40;;;9.00;99.90;;;;;;5069690;28;20202;-66
2022/03/05 01:36:58;;;;;;;5.83;2.87;;;9.00;99.90;;;;;;5069375;28;20609;-66
2022/03/05 01:39:25;;;;;;;7.30;3.40;;;9.00;99.90;;;;;;5069176;28;20232;-66
2022/03/05 01:41:55;;;;;;;5.67;3.23;;;9.10;99.90;;;;;;5061661;28;20183;-68
2022/03/05 01:44:22;;;;;;;3.83;3.33;;;9.00;99.90;;;;;;5067218;28;20601;-66
2022/03/05 01:46:49;;;;;;;5.53;2.93;;;9.10;99.90;;;;;;5070338;28;20237;-66
2022/03/05 01:49:16;;;;;;;7.03;2.93;;;9.10;99.90;;;;;;5068992;28;20782;-65
2022/03/05 01:51:43;;;;;;;10.97;3.40;;;9.00;99.90;;;;;;5069935;28;20198;-67
2022/03/05 01:54:11;;;;;;;5.67;2.87;;;9.10;99.90;;;;;;5068889;28;20197;-66
2022/03/05 01:56:39;;;;;;;5.60;3.07;;;9.00;99.90;;;;;;5056155;28;20254;-66
2022/03/05 01:59:07;;;;;;;5.07;3.30;;;9.10;99.90;;;;;;5068199;28;20195;-66
2022/03/05 02:01:33;;;;;;;6.00;3.00;;;9.10;99.90;;;;;;5068353;28;20199;-66
2022/03/05 02:04:00;;;;;;;5.57;2.70;;;9.20;99.90;;;;;;5069625;28;20661;-65
2022/03/05 02:06:26;;;;;;;6.30;3.43;;;9.20;99.90;;;;;;5067320;28;20198;-65
2022/03/05 02:08:57;;;;;;;8.37;2.90;;;9.30;99.90;;;;;;5068197;28;20882;-66
2022/03/05 02:11:24;;;;;;;9.07;3.20;;;9.30;99.90;;;;;;5066773;28;20190;-65
2022/03/05 02:13:51;;;;;;;4.73;2.90;;;9.30;99.90;;;;;;5062337;28;20859;-66
2022/03/05 02:16:20;;;;;;;7.07;3.10;;;9.40;99.90;;;;;;5068683;28;20186;-65
2022/03/05 02:18:52;;;;;;;4.80;2.87;;;9.40;99.90;;;;;;5070100;28;20209;-67
2022/03/05 02:21:22;;;;;;;9.93;3.67;;;9.40;99.90;;;;;;5068554;28;20202;-67
2022/03/05 02:23:49;;;;;;;8.23;3.00;;;9.40;99.90;;;;;;5068113;28;20194;-67
2022/03/05 02:26:16;;;;;;;7.07;3.23;;;9.40;99.90;;;;;;5067622;28;20222;-66
2022/03/05 02:28:42;;;;;;;5.63;3.07;;;9.50;99.90;;;;;;5069409;28;20359;-66
2022/03/05 02:31:09;;;;;;;4.60;2.63;;;9.40;99.90;;;;;;5068596;28;20278;-66
2022/03/05 02:33:36;;;;;;;7.40;3.20;;;9.50;99.90;;;;;;5069822;28;20279;-66
2022/03/05 02:36:05;;;;;;;9.07;3.10;;;9.50;99.90;;;;;;5067819;28;20633;-66
2022/03/05 02:38:31;;;;;;;5.13;2.60;;;9.40;99.90;;;;;;5061495;28;20604;-66
2022/03/05 02:40:57;;;;;;;4.83;2.70;;;9.40;99.90;;;;;;5067184;28;20191;-66
2022/03/05 02:43:25;;;;;;;6.60;2.70;;;9.40;99.90;;;;;;5064395;28;20206;-67
2022/03/05 02:45:52;;;;;;;5.63;2.83;;;9.40;99.90;;;;;;5066100;28;20593;-66
2022/03/05 02:48:20;;;;;;;6.03;2.90;;;9.30;99.90;;;;;;5067712;28;20241;-66
2022/03/05 02:50:49;;;;;;;6.87;3.03;;;9.30;99.90;;;;;;5066990;28;20636;-67
2022/03/05 02:53:16;;;;;;;3.07;2.50;;;9.30;99.90;;;;;;5067881;28;20254;-66
2022/03/05 02:55:43;;;;;;;7.60;3.00;;;9.30;99.90;;;;;;5061923;28;20706;-66
2022/03/05 02:58:10;;;;;;;5.33;2.70;;;9.30;99.90;;;;;;5066553;28;20194;-66
2022/03/05 03:00:36;;;;;;;8.40;2.93;;;9.40;99.90;;;;;;5068574;28;20198;-66
2022/03/05 03:03:03;;;;;;;8.60;2.80;;;9.40;99.90;;;;;;5067280;28;20183;-66
2022/03/05 03:05:29;;;;;;;4.40;2.40;;;9.40;99.90;;;;;;5069204;28;20199;-67
2022/03/05 03:07:55;;;;;;;4.57;2.93;;;9.40;99.90;;;;;;5066352;28;20346;-66
2022/03/05 03:10:21;;;;;;;8.53;2.90;;;9.40;99.90;;;;;;5066449;28;20997;-65
2022/03/05 03:12:48;;;;;;;6.03;3.03;;;9.50;99.90;;;;;;5068306;28;20544;-65
2022/03/05 03:15:16;;;;;;;4.53;3.00;;;9.50;99.90;;;;;;5058794;28;20632;-66
2022/03/05 03:17:45;;;;;;;5.70;3.10;;;9.50;99.90;;;;;;5066934;28;20277;-66
2022/03/05 03:20:18;;;;;;;3.67;2.80;;;9.50;99.90;;;;;;5067893;28;20884;-65
2022/03/05 03:22:45;;;;;;;6.53;3.00;;;9.50;99.90;;;;;;5068967;28;20976;-67
2022/03/05 03:25:12;;;;;;;8.20;3.10;;;9.50;99.90;;;;;;5067145;28;20223;-67
2022/03/05 03:27:39;;;;;;;5.23;3.10;;;9.50;99.90;;;;;;5067494;28;20292;-66
2022/03/05 03:30:09;;;;;;;7.90;3.30;;;9.50;99.90;;;;;;5048738;28;20194;-67
2022/03/05 03:32:36;;;;;;;4.27;2.83;;;9.50;99.90;;;;;;5066172;28;20202;-67
2022/03/05 03:35:04;;;;;;;4.20;2.80;;;9.50;99.90;;;;;;5068958;28;20260;-66
2022/03/05 03:37:31;;;;;;;6.83;3.30;;;9.50;99.90;;;;;;5067819;28;20555;-66
2022/03/05 03:40:00;;;;;;;7.00;3.23;;;9.50;99.90;;;;;;5067209;28;20285;-66
2022/03/05 03:42:27;;;;;;;8.53;3.40;;;9.60;99.90;;;;;;5065482;28;20198;-67
2022/03/05 03:44:54;;;;;;;6.97;3.10;;;9.60;99.90;;;;;;5061220;28;20270;-66
2022/03/05 03:47:22;;;;;;;6.53;3.07;;;9.60;99.90;;;;;;5061813;28;20246;-66
2022/03/05 03:49:50;;;;;;;5.03;2.73;;;9.60;99.90;;;;;;5049932;28;20197;-66
2022/03/05 03:52:16;;;;;;;5.57;2.80;;;9.60;99.90;;;;;;5067115;28;20259;-66
2022/03/05 03:54:45;;;;;;;5.70;2.80;;;9.60;99.90;;;;;;5067760;28;20194;-66
2022/03/05 03:57:13;;;;;;;6.93;3.50;;;9.60;99.90;;;;;;5065901;28;20221;-66
2022/03/05 03:59:39;;;;;;;5.23;2.93;;;9.50;99.90;;;;;;5065223;28;20187;-67
2022/03/05 04:02:06;;;;;;;5.63;3.10;;;9.50;99.90;;;;;;5068365;28;20194;-66
2022/03/05 04:04:33;;;;;;;7.30;3.23;;;9.60;99.90;;;;;;5067377;28;20190;-67
2022/03/05 04:09:43;;;;;;;7.10;3.17;;;9.50;99.90;;;;;;5071663;28;20194;-66
2022/03/05 04:12:10;;;;;;;9.63;3.63;;;9.60;99.90;;;;;;5071953;28;20277;-65
2022/03/05 04:14:40;;;;;;;7.83;3.90;;;9.60;99.90;;;;;;5070110;28;20209;-66
2022/03/05 04:17:06;;;;;;;8.17;3.80;;;9.50;99.90;;;;;;5062967;28;20251;-66
2022/03/05 04:19:33;;;;;;;7.73;3.53;;;9.50;99.90;;;;;;5069952;28;20190;-67
2022/03/05 04:22:01;;;;;;;7.80;3.47;;;9.50;99.90;;;;;;5068512;28;20222;-66
2022/03/05 04:24:28;;;;;;;8.70;3.77;;;9.50;99.90;;;;;;5071942;28;20206;-66
2022/03/05 04:26:54;;;;;;;7.53;4.00;;;9.50;99.90;;;;;;5071466;28;20207;-66
2022/03/05 04:29:21;;;;;;;10.07;5.57;;;9.50;99.90;;;;;;5069972;28;20843;-66
2022/03/05 04:31:47;;;;;;;10.37;5.23;;;9.40;99.90;;;;;;5071220;28;20194;-66
2022/03/05 04:34:13;;;;;;;5.60;4.73;;;9.40;99.90;;;;;;5071439;28;20209;-66
2022/03/05 04:36:39;;;;;;;6.37;4.90;;;9.40;99.90;;;;;;5070058;28;20563;-65
2022/03/05 04:39:06;;;;;;;8.37;4.50;;;9.30;99.90;;;;;;5069672;28;20198;-66
2022/03/05 04:41:32;;;;;;;7.23;4.17;;;9.20;99.90;;;;;;5069345;28;20210;-65
2022/03/05 04:43:58;;;;;;;12.97;4.80;;;9.20;99.90;;;;;;5053603;28;20285;-66
2022/03/05 04:46:24;;;;;;;7.40;4.07;;;9.20;99.90;;;;;;5049657;28;20716;-65
2022/03/05 04:48:51;;;;;;;6.77;4.10;;;9.10;99.90;;;;;;5065504;28;20250;-67
2022/03/05 04:51:17;;;;;;;10.80;5.20;;;9.10;99.90;;;;;;5071041;28;20636;-65
2022/03/05 04:53:43;;;;;;;8.37;5.00;;;9.10;99.90;;;;;;5052671;28;20631;-66
2022/03/05 04:56:10;;;;;;;10.20;5.20;;;9.10;99.90;;;;;;5068637;28;20199;-66
2022/03/05 04:58:36;;;;;;;6.43;4.07;;;9.10;99.90;;;;;;5069090;28;20206;-67
2022/03/05 05:01:03;;;;;;;9.70;4.60;;;9.10;99.90;;;;;;5085516;28;20286;-66
2022/03/05 05:03:29;;;;;;;8.23;5.07;;;9.10;99.90;;;;;;5070273;28;20205;-65
2022/03/05 05:05:56;;;;;;;6.63;4.83;;;9.10;99.90;;;;;;5070725;28;20193;-65
2022/03/05 05:08:23;;;;;;;8.40;4.87;;;9.10;99.90;;;;;;5068675;28;20715;-67
2022/03/05 05:10:49;;;;;;;9.40;5.00;;;9.10;99.90;;;;;;5070039;28;20193;-65
2022/03/05 05:13:15;;;;;;;10.23;4.60;;;9.20;99.90;;;;;;5070830;28;20214;-65
2022/03/05 05:15:41;;;;;;;9.33;5.00;;;9.20;99.90;;;;;;5069247;28;20194;-65
2022/03/05 05:18:08;;;;;;;6.70;4.97;;;9.20;99.90;;;;;;5065260;28;20218;-67
2022/03/05 05:20:34;;;;;;;8.77;4.67;;;9.20;99.90;;;;;;5087644;28;20570;-65
2022/03/05 05:23:00;;;;;;;6.57;4.47;;;9.30;99.90;;;;;;5071294;28;20679;-65
2022/03/05 05:25:27;;;;;;;6.77;4.80;;;9.20;99.90;;;;;;5069060;28;20229;-66
2022/03/05 05:27:53;;;;;;;6.53;4.83;;;9.20;99.90;;;;;;5068486;28;20222;-66
2022/03/05 05:30:19;;;;;;;10.37;5.37;;;9.20;99.90;;;;;;5070135;28;20229;-66
2022/03/05 05:32:46;;;;;;;6.07;4.63;;;9.30;99.90;;;;;;5069675;28;20214;-66
2022/03/05 05:35:12;;;;;;;5.73;4.47;;;9.30;99.90;;;;;;5079785;28;20201;-66
2022/03/05 05:37:38;;;;;;;7.93;4.20;;;9.30;99.90;;;;;;5077866;28;20195;-65
2022/03/05 05:40:06;;;;;;;6.47;4.23;;;9.30;99.90;;;;;;5071155;28;20539;-66
2022/03/05 05:42:32;;;;;;;6.13;4.13;;;9.20;99.90;;;;;;5068472;28;20260;-65
2022/03/05 05:44:58;;;;;;;7.87;4.07;;;9.20;99.90;;;;;;5069562;28;20639;-65
2022/03/05 05:47:25;;;;;;;9.33;4.23;;;9.30;99.90;;;;;;5069524;28;20227;-66
2022/03/05 05:49:51;;;;;;;5.97;3.97;;;9.20;99.90;;;;;;5061779;28;20270;-66
2022/03/05 05:52:18;;;;;;;6.90;4.73;;;9.20;99.90;;;;;;5069230;28;20195;-66
2022/03/05 05:54:45;;;;;;;7.73;4.17;;;9.20;99.90;;;;;;5047382;28;20183;-66
2022/03/05 05:57:12;;;;;;;8.40;4.20;;;9.30;99.90;;;;;;5069848;28;20194;-66
2022/03/05 05:59:38;;;;;;;7.07;4.20;;;9.20;99.90;;;;;;5069681;28;20198;-67
2022/03/05 06:02:04;;;;;;;5.97;4.17;;;9.20;99.90;;;;;;5068723;28;20273;-65
2022/03/05 06:04:30;;;;;;;6.70;4.30;;;9.20;99.90;;;;;;5069871;28;20194;-67
2022/03/05 06:06:57;;;;;;;8.57;3.97;;;9.20;99.90;;;;;;5067905;28;20517;-66
2022/03/05 06:09:24;;;;;;;5.47;4.03;;;9.30;99.90;;;;;;5069257;28;20266;-65
2022/03/05 06:11:50;;;;;;;9.63;5.10;;;9.40;99.90;;;;;;5068799;28;20186;-65
2022/03/05 06:14:16;;;;;;;9.80;4.70;;;9.50;99.90;;;;;;5068019;28;20270;-66
2022/03/05 06:16:43;;;;;;;9.47;4.73;;;9.60;99.90;;;;;;5068989;28;20600;-67
2022/03/05 06:19:09;;;;;;;8.57;4.77;;;9.60;99.90;;;;;;5065396;28;20938;-66
2022/03/05 06:21:36;;;;;;;9.80;4.57;;;9.80;99.90;;;;;;5067056;28;20213;-65
2022/03/05 06:24:02;;;;;;;7.13;4.93;;;9.90;99.90;;;;;;5069876;28;20201;-65
2022/03/05 06:26:30;;;;;;;10.13;5.00;;;9.90;99.90;;;;;;5064416;28;20207;-65
2022/03/05 06:28:56;;;;;;;7.47;4.63;;;10.00;99.90;;;;;;5068115;28;20214;-65
2022/03/05 06:31:23;;;;;;;10.43;5.20;;;10.10;99.90;;;;;;5068194;28;20190;-65
2022/03/05 06:33:49;;;;;;;9.17;5.17;;;10.10;99.90;;;;;;5068692;28;20297;-66
2022/03/05 06:36:16;;;;;;;6.37;5.10;;;10.20;99.90;;;;;;5067541;28;20727;-66
2022/03/05 06:38:42;;;;;;;12.53;5.30;;;10.20;99.90;;;;;;5043465;28;20198;-66
2022/03/05 06:41:08;;;;;;;9.67;5.37;;;10.30;99.90;;;;;;5075957;28;20198;-66
2022/03/05 06:43:34;;;;;;;12.97;5.23;;;10.30;99.90;;;;;;5050898;28;20194;-65
2022/03/05 06:46:01;;;;;;;9.00;4.87;;;10.40;99.90;;;;;;5067736;28;20348;-65
2022/03/05 06:48:27;;;;;;;9.10;4.03;;;10.40;99.90;;;;;;5078408;28;20271;-65
2022/03/05 06:50:53;;;;;;;8.33;4.10;;;10.50;99.90;;;;;;5074491;28;20183;-67
2022/03/05 06:53:19;;;;;;;10.33;4.70;;;10.50;99.90;;;;;;5069780;28;20191;-67
2022/03/05 06:55:48;;;;;;;7.90;3.97;;;10.50;99.90;;;;;;5050641;28;20293;-67
2022/03/05 06:58:17;;;;;;;10.23;4.37;;;10.60;99.90;;;;;;5068161;28;20630;-66
2022/03/05 07:00:44;;;;;;;7.80;3.93;;;10.70;99.90;;;;;;5069485;28;20215;-67
2022/03/05 07:03:11;;;;;;;10.13;4.27;;;10.80;99.90;;;;;;5066989;28;20647;-65
2022/03/05 07:05:37;;;;;;;6.87;3.57;;;10.90;99.90;;;;;;5068427;28;20198;-65
2022/03/05 07:08:04;;;;;;;7.80;3.77;;;11.00;99.90;;;;;;5067044;28;20221;-66
2022/03/05 07:10:30;;;;;;;6.57;3.70;;;11.10;99.90;;;;;;5050661;28;20191;-66
2022/03/05 07:12:56;;;;;;;10.57;3.83;;;11.20;99.90;;;;;;5068325;28;20205;-66
2022/03/05 07:15:23;;;;;;;7.73;3.23;;;11.30;99.90;;;;;;5067654;28;20187;-66
2022/03/05 07:17:51;;;;;;;6.47;3.40;;;11.40;99.90;;;;;;5067711;28;20663;-67
2022/03/05 07:20:19;;;;;;;11.93;3.60;;;11.40;99.90;;;;;;5067174;28;20299;-66
2022/03/05 07:22:46;;;;;;;10.53;3.47;;;11.60;99.90;;;;;;5060203;28;20194;-66
2022/03/05 07:25:12;;;;;;;5.30;3.37;;;11.70;99.90;;;;;;5068300;28;20210;-66
2022/03/05 07:27:39;;;;;;;9.20;3.23;;;11.80;99.90;;;;;;5068517;28;20218;-68
2022/03/05 07:30:08;;;;;;;11.13;3.70;;;11.90;99.90;;;;;;5069212;28;20190;-66
2022/03/05 07:32:35;;;;;;;8.63;3.30;;;11.80;99.90;;;;;;5068820;28;20191;-67
2022/03/05 07:35:04;;;;;;;5.77;2.93;;;11.80;99.90;;;;;;5065666;28;20329;-67
2022/03/05 07:37:31;;;;;;;5.90;3.20;;;11.80;99.90;;;;;;5087852;28;20276;-67
2022/03/05 07:39:58;;;;;;;4.07;3.00;;;11.80;99.90;;;;;;5077705;28;20698;-66
2022/03/05 07:42:24;;;;;;;7.23;3.10;;;11.70;99.90;;;;;;5067831;28;20319;-66
2022/03/05 07:44:50;;;;;;;6.90;3.10;;;11.70;99.90;;;;;;5063967;28;20186;-67
2022/03/05 07:47:17;;;;;;;6.73;3.03;;;11.70;99.90;;;;;;5066627;28;20298;-67
2022/03/05 07:49:43;;;;;;;6.77;3.40;;;11.70;99.90;;;;;;5065427;28;20513;-67
2022/03/05 07:52:12;;;;;;;7.90;2.83;;;11.70;99.90;;;;;;5061900;28;20190;-67
2022/03/05 07:54:38;;;;;;;5.57;2.73;;;11.70;99.90;;;;;;5061869;28;20190;-67
2022/03/05 07:57:06;;;;;;;6.20;2.53;;;11.80;99.90;;;;;;5056848;28;20197;-66
2022/03/05 07:59:32;;;;;;;8.27;2.73;;;11.80;99.90;;;;;;5066130;28;20187;-66
2022/03/05 08:01:58;;;;;;;7.53;2.90;;;11.90;99.90;;;;;;5070298;28;20195;-67
2022/03/05 08:04:25;;;;;;;5.60;2.57;;;12.00;99.90;;;;;;5064766;28;20524;-68
2022/03/05 08:06:51;;;;;;;13.23;4.73;;;12.00;99.90;;;;;;5063942;28;20191;-67
2022/03/05 08:09:18;;;;;;;10.63;4.67;;;12.00;99.90;;;;;;5066564;28;20210;-67
2022/03/05 08:11:44;;;;;;;15.53;6.03;;;12.00;99.90;;;;;;5068146;28;20643;-68
2022/03/05 08:14:10;;;;;;;11.23;4.70;;;12.00;99.90;;;;;;5067770;28;20278;-67
2022/03/05 08:16:36;;;;;;;7.37;3.90;;;12.00;99.90;;;;;;5045690;28;20187;-67
2022/03/05 08:19:03;;;;;;;11.20;4.50;;;12.00;99.90;;;;;;5065132;28;20619;-67
2022/03/05 08:21:30;;;;;;;6.23;3.80;;;11.90;99.90;;;;;;5073135;28;20220;-67
2022/03/05 08:23:56;;;;;;;6.37;3.20;;;11.90;99.90;;;;;;5059962;28;20189;-68
2022/03/05 08:26:24;;;;;;;6.23;3.13;;;11.80;99.90;;;;;;5062388;28;20267;-67
2022/03/05 08:28:51;;;;;;;5.67;3.40;;;11.80;99.90;;;;;;5067958;28;20216;-67
2022/03/05 08:31:17;;;;;;;4.93;3.00;;;11.70;99.90;;;;;;5064779;28;20183;-68
2022/03/05 08:33:43;;;;;;;4.53;3.27;;;11.70;99.90;;;;;;5064685;28;20187;-67
2022/03/05 08:36:10;;;;;;;4.07;3.30;;;11.70;99.90;;;;;;5066786;28;20520;-68
2022/03/05 08:38:37;;;;;;;5.40;3.43;;;11.70;99.90;;;;;;5049496;28;20194;-67
2022/03/05 08:41:04;;;;;;;4.27;3.50;;;11.70;99.90;;;;;;5066514;28;20285;-68
2022/03/05 08:43:31;;;;;;;6.83;3.73;;;11.70;99.90;;;;;;5065678;28;20829;-67
2022/03/05 08:45:58;;;;;;;11.13;3.73;;;11.80;99.90;;;;;;5045689;28;20187;-68
2022/03/05 08:48:24;;;;;;;9.40;3.63;;;11.80;99.90;;;;;;5065845;28;20222;-67
2022/03/05 08:50:51;;;;;;;6.57;3.50;;;11.80;99.90;;;;;;5065035;28;20195;-68
2022/03/05 08:53:17;;;;;;;8.60;3.73;;;11.80;99.90;;;;;;5049124;28;20201;-68
2022/03/05 08:55:43;;;;;;;5.33;3.77;;;11.90;99.90;;;;;;5062411;28;20191;-67
2022/03/05 08:58:11;;;;;;;7.13;3.80;;;11.90;99.90;;;;;;5068073;28;20244;-68
2022/03/05 09:00:38;;;;;;;5.63;4.00;;;12.00;99.90;;;;;;5068234;28;20186;-67
2022/03/05 09:03:04;;;;;;;4.83;3.70;;;12.00;99.90;;;;;;5068764;28;20201;-68
2022/03/05 09:05:31;;;;;;;10.70;3.27;;;12.10;99.90;;;;;;5068817;28;20225;-67
2022/03/05 09:08:00;;;;;;;6.77;3.37;;;12.10;99.90;;;;;;5070154;28;20285;-67
2022/03/05 09:10:27;;;;;;;6.50;3.00;;;12.10;99.90;;;;;;5068433;28;20314;-68
2022/03/05 09:12:53;;;;;;;5.20;3.27;;;12.10;99.90;;;;;;5067669;28;20198;-67
2022/03/05 09:15:19;;;;;;;5.27;2.90;;;12.10;99.90;;;;;;5066016;28;20191;-67
2022/03/05 09:17:46;;;;;;;5.90;3.07;;;12.10;99.90;;;;;;5066828;28;20194;-68
2022/03/05 09:20:14;;;;;;;6.07;3.47;;;12.10;99.90;;;;;;5063938;28;20707;-68
2022/03/05 09:22:40;;;;;;;8.13;2.73;;;12.10;99.90;;;;;;5066865;28;20618;-67
2022/03/05 09:25:08;;;;;;;5.93;2.80;;;12.10;99.90;;;;;;5062728;28;20202;-68
2022/03/05 09:27:36;;;;;;;3.93;2.40;;;12.10;99.90;;;;;;5065445;28;20214;-68
2022/03/05 09:30:05;;;;;;;6.07;2.80;;;12.10;99.90;;;;;;5083086;28;20230;-68
2022/03/05 09:32:32;;;;;;;8.13;2.77;;;12.10;99.90;;;;;;5050609;28;20667;-68
2022/03/05 09:34:59;;;;;;;4.30;2.70;;;12.10;99.90;;;;;;5069954;28;20670;-67
2022/03/05 09:37:30;;;;;;;6.60;2.60;;;12.20;99.90;;;;;;5068199;28;20279;-67
2022/03/05 09:39:58;;;;;;;3.47;2.83;;;12.20;99.90;;;;;;5067985;28;20799;-67
2022/03/05 09:42:25;;;;;;;5.17;2.43;;;12.20;99.90;;;;;;5083876;28;20198;-68
2022/03/05 09:44:52;;;;;;;4.60;2.90;;;12.20;99.90;;;;;;5067510;28;20190;-67
2022/03/05 09:47:22;;;;;;;4.97;2.77;;;12.20;99.90;;;;;;5067636;28;20744;-67
2022/03/05 09:49:49;;;;;;;5.57;2.30;;;12.20;99.90;;;;;;5067178;28;20198;-67
2022/03/05 09:52:16;;;;;;;4.20;2.90;;;12.20;99.90;;;;;;5051475;28;20201;-68
2022/03/05 09:54:42;;;;;;;5.60;2.40;;;12.20;99.90;;;;;;5067991;28;20622;-67
2022/03/05 09:57:12;;;;;;;5.07;2.60;;;12.20;99.90;;;;;;5059379;28;20218;-67
2022/03/05 09:59:39;;;;;;;5.10;2.40;;;12.20;99.90;;;;;;5068409;28;20539;-67
2022/03/05 10:02:07;;;;;;;5.03;2.57;;;12.20;99.90;;;;;;5069471;28;20197;-68
2022/03/05 10:04:35;;;;;;;5.60;2.60;;;12.20;99.90;;;;;;5067403;28;20882;-66
2022/03/05 10:07:18;;;;;;;4.17;2.57;;;12.20;99.90;;;;;;5069425;28;20199;-67
2022/03/05 10:09:48;;;;;;;4.73;2.07;;;12.20;99.90;;;;;;5064600;28;20194;-67
2022/03/05 10:12:43;;;;;;;7.23;3.00;;;12.20;99.90;;;;;;5069097;28;20194;-67
2022/03/05 10:15:23;;;;;;;5.77;2.57;;;12.10;99.90;;;;;;5059993;28;20279;-68
2022/03/05 10:18:01;;;;;;;6.03;2.50;;;12.10;99.90;;;;;;5067198;28;20205;-68
2022/03/05 10:20:33;;;;;;;8.03;2.60;;;12.10;99.90;;;;;;5067260;28;20208;-67
2022/03/05 10:23:09;;;;;;;3.37;2.57;;;12.10;99.90;;;;;;5063112;28;20202;-67
2022/03/05 10:25:38;;;;;;;5.73;2.73;;;12.20;99.90;;;;;;5064145;28;20220;-67
2022/03/05 10:28:06;;;;;;;5.17;2.63;;;12.20;99.90;;;;;;5059524;28;20836;-68
2022/03/05 10:30:43;;;;;;;6.40;2.70;;;12.30;99.90;;;;;;5065266;28;20878;-67
2022/03/05 10:33:30;;;;;;;6.03;2.70;;;12.30;99.90;;;;;;5068104;28;20622;-67
2022/03/05 10:36:08;;;;;;;5.97;2.47;;;12.30;99.90;;;;;;5062245;28;20222;-67
2022/03/05 10:38:52;;;;;;;6.53;2.70;;;12.20;99.90;;;;;;5065475;28;20194;-68
2022/03/05 10:41:33;;;;;;;4.53;2.30;;;12.20;99.90;;;;;;5065055;28;20203;-68
2022/03/05 10:44:15;;;;;;;7.73;2.37;;;12.20;99.90;;;;;;5064456;28;20199;-67
2022/03/05 10:47:01;;;;;;;6.57;2.30;;;12.20;99.90;;;;;;5065605;28;20210;-68
2022/03/05 10:49:35;;;;;;;5.37;2.70;;;12.20;99.90;;;;;;5080369;28;20195;-68
2022/03/05 10:52:07;;;;;;;6.10;2.80;;;12.20;99.90;;;;;;5049271;28;20199;-67
2022/03/05 10:54:40;;;;;;;5.53;3.30;;;12.20;99.90;;;;;;5048450;28;20214;-68
2022/03/05 10:57:18;;;;;;;4.60;2.77;;;12.20;99.90;;;;;;5061524;28;20206;-68
2022/03/05 10:59:50;;;;;;;6.80;2.87;;;12.20;99.90;;;;;;5080618;28;20198;-67
2022/03/05 11:02:20;;;;;;;5.07;2.83;;;12.20;99.90;;;;;;5074763;28;20190;-68
2022/03/05 11:04:49;;;;;;;9.03;3.23;;;12.30;99.90;;;;;;5073313;28;20187;-68
2022/03/05 11:07:18;;;;;;;7.70;2.77;;;12.20;99.90;;;;;;5075010;28;20182;-68
2022/03/05 11:09:47;;;;;;;7.73;3.07;;;12.30;99.90;;;;;;5068753;28;20202;-69
2022/03/05 11:12:21;;;;;;;8.13;2.80;;;12.30;99.90;;;;;;5065888;28;20187;-68
2022/03/05 11:14:51;;;;;;;6.57;2.60;;;12.30;99.90;;;;;;5063708;28;20191;-68
2022/03/05 11:17:19;;;;;;;4.60;2.93;;;12.30;99.90;;;;;;5066424;28;20610;-67
2022/03/05 11:19:47;;;;;;;5.20;2.70;;;12.30;99.90;;;;;;5069006;28;20232;-68
2022/03/05 11:22:17;;;;;;;5.40;2.67;;;12.40;99.90;;;;;;5067773;28;20217;-68
2022/03/05 11:24:44;;;;;;;5.13;2.30;;;12.30;99.90;;;;;;5065620;28;20211;-68
2022/03/05 11:27:16;;;;;;;4.77;2.30;;;12.30;99.90;;;;;;5065915;28;20222;-68
2022/03/05 11:29:57;;;;;;;3.97;2.50;;;12.40;99.90;;;;;;5060627;28;20317;-68
2022/03/05 11:32:34;;;;;;;2.93;2.23;;;12.40;99.90;;;;;;5049328;28;20198;-68
2022/03/05 11:35:16;;;;;;;5.90;2.50;;;12.50;99.90;;;;;;5066525;28;20281;-68
2022/03/05 11:37:44;;;;;;;6.83;2.60;;;12.50;99.90;;;;;;5066411;28;20551;-68
2022/03/05 11:40:41;;;;;;;5.17;2.17;;;12.50;99.90;;;;;;5077159;28;20209;-68
2022/03/05 11:43:23;;;;;;;5.77;2.60;;;12.60;99.90;;;;;;5063825;28;20623;-68
2022/03/05 11:45:56;;;;;;;5.63;2.37;;;12.60;99.90;;;;;;5064821;28;20270;-67
2022/03/05 11:48:23;;;;;;;5.30;2.30;;;12.60;99.90;;;;;;5092745;28;20203;-67
2022/03/05 11:51:06;;;;;;;6.10;2.53;;;12.60;99.90;;;;;;5065226;28;20223;-67
2022/03/05 11:53:32;;;;;;;3.50;2.13;;;12.60;99.90;;;;;;5058809;28;20739;-68
2022/03/05 11:56:26;;;;;;;6.87;3.07;;;12.60;99.90;;;;;;5041679;28;20191;-67
2022/03/05 11:58:52;;;;;;;3.97;2.70;;;12.60;99.90;;;;;;5062096;28;20202;-67
2022/03/05 12:01:42;;;;;;;5.07;2.83;;;12.60;99.90;;;;;;5081564;28;20252;-67
2022/03/05 12:04:28;;;;;;;5.93;2.37;;;12.70;99.90;;;;;;5061647;28;20187;-67
2022/03/05 12:07:01;;;;;;;8.23;2.30;;;12.70;99.90;;;;;;5059338;28;20191;-67
2022/03/05 12:09:44;;;;;;;4.47;2.07;;;12.70;99.90;;;;;;5068103;28;20222;-68
2022/03/05 12:12:15;;;;;;;2.43;1.60;;;12.80;99.90;;;;;;5065874;28;21952;-67
2022/03/05 12:15:08;;;;;;;3.83;1.90;;;12.80;99.90;;;;;;5065521;28;20186;-68
2022/03/05 12:17:48;;;;;;;4.57;1.53;;;12.90;99.90;;;;;;5061411;28;20289;-67
2022/03/05 12:20:22;;;;;;;4.83;2.00;;;13.00;99.90;;;;;;5064703;28;20217;-67
2022/03/05 12:23:00;;;;;;;6.17;1.80;;;13.10;99.90;;;;;;5067551;28;20202;-67
2022/03/05 12:25:29;;;;;;;4.00;2.20;;;13.10;99.90;;;;;;5067931;28;20202;-67
2022/03/05 12:27:57;;;;;;;5.07;2.40;;;13.20;99.90;;;;;;5062195;28;20212;-67
2022/03/05 12:30:38;;;;;;;3.10;2.27;;;13.30;99.90;;;;;;5062282;28;20228;-67
2022/03/05 12:33:10;;;;;;;4.57;1.80;;;13.40;99.90;;;;;;5063760;28;20192;-68
2022/03/05 12:35:38;;;;;;;4.67;2.10;;;13.60;99.90;;;;;;5063707;28;20194;-67
2022/03/05 12:38:06;;;;;;;4.03;2.27;;;13.70;99.90;;;;;;5069026;28;20195;-67
2022/03/05 12:40:37;;;;;;;5.80;2.10;;;13.90;99.90;;;;;;5071020;28;20279;-68
2022/03/05 12:43:07;;;;;;;4.27;1.97;;;14.00;99.90;;;;;;5069831;28;20640;-68
2022/03/05 12:45:41;;;;;;;6.93;1.97;;;14.20;99.90;;;;;;5052273;28;20600;-67
2022/03/05 12:48:20;;;;;;;6.37;2.43;;;14.30;99.90;;;;;;5069275;28;20203;-67
2022/03/05 12:50:50;;;;;;;6.10;2.23;;;14.30;99.90;;;;;;5059474;28;20297;-67
2022/03/05 12:53:19;;;;;;;5.50;2.23;;;14.30;99.90;;;;;;5075900;28;20182;-68
2022/03/05 12:55:56;;;;;;;4.67;1.87;;;14.30;99.90;;;;;;5070066;28;20191;-67
2022/03/05 12:58:31;;;;;;;5.70;2.13;;;14.30;99.90;;;;;;5069067;28;20199;-68
2022/03/05 13:01:05;;;;;;;2.93;1.83;;;14.30;99.90;;;;;;5070723;28;20201;-67